Back to top

Big Piney, WY weather

Big Piney-Marbleton Airport (AMOS), Big Piney, WY: 6/04/2020 04:53
Visibility10 statute milesclear sky
View 7-Day Forecast
Area Summary
Sky/CloudsSky Clear
Weather [last 24 hours]None [rain began 13:25, thunderstorm began 13:23 ended 13:45; rain ended 14:19 ]
Pressure30.1 in.Hg (1019 hPa)
Dew Point37.9 °F (3.3 °C)
Relative Humidity82.2 %
Last 24-Hour Precip.0.03 in. (0.762 mm)
Reading TimePrecipitation
6-hr ending 6/3@17:530.03 in. (0.762 mm)
6-hr ending 6/3@05:53Trace
Temperature43 °F (6.1 °C)red thermometer
Reading TimeMinimum to Maximum Temperature
6-hr ending 6/3@23:5346.9 °F to 75 °F (8.3 °C to 23.9 °C)
6-hr ending 6/3@17:5357 °F to 75 °F (13.9 °C to 23.9 °C)
6-hr ending 6/3@11:5339 °F to 68 °F (3.9 °C to 20 °C)
6-hr ending 6/3@05:5339 °F to 54 °F (3.9 °C to 12.2 °C)
24-hr ending 6/4@00:5339 °F to 75 °F (3.9 °C to 23.9 °C)
Wind0 MPH (0 KT) green arrow pointing at 0 degrees
Wind FromNorth (000 Degrees)
Rolling 24-hr Peak Wind56.4 MPH (49 KT) on 6/3@16:00
Rolling 24-hr Peak Wind FromWest (260 Degrees)
Twilight Begins05:07Sunshine Yesterday
Sunrise05:42N/A
Sunset20:56
Twilight Ends21:31
METARKBPI 041053Z AUTO 00000KT 10SM CLR 06/03 A3010 RMK AO2 SLP108 T00610033
Tags: